Menoken, North Dakota
Current Conditions -  °F | °C
As of 11:52 AM on Friday 24 Oct 2014 (Local Time) from KBIS Reporting Station
Scattered Clouds Scattered Clouds  
Wind Chill: 64°   Ceiling: Unl
Heat Index: 64°   Visibility: 10mi
Dew Point: 39°   Wind: 7mph
Humidity: 40%   Direction: 320°NW
Pressure: 29.91"   Gusts: NA
Location:  46.82°N, 100.53°W
Report Text: KBIS 241652Z 32006KT 10SM SCT110 18/04 A2991 RMK AO2 SLP131 T01780039
Loading
Personal Weather Stations






























Interactive Weather Map
Tropical Storm Tracking
New forecast layout! Learn more

10-Day Weather Forecast

Advertisements
Track Severe Weather on mobile